createdAt,value
2016-08-18T00:00:34.415Z,0
2016-08-18T00:01:34.424Z,0
2016-08-18T00:02:34.413Z,0
2016-08-18T00:03:34.398Z,0
2016-08-18T00:04:34.411Z,0
2016-08-18T00:05:34.370Z,0
2016-08-18T00:06:34.384Z,0
2016-08-18T00:07:34.353Z,0
2016-08-18T00:08:34.364Z,0
2016-08-18T00:09:34.310Z,0
2016-08-18T00:10:34.334Z,0
2016-08-18T00:11:34.333Z,0
2016-08-18T00:12:34.318Z,0
2016-08-18T00:13:34.319Z,0
2016-08-18T00:14:34.283Z,0
2016-08-18T00:15:34.306Z,0
2016-08-18T00:16:34.273Z,0
2016-08-18T00:17:34.225Z,0
2016-08-18T00:18:34.269Z,0
2016-08-18T00:19:34.244Z,0
2016-08-18T00:20:34.254Z,0
2016-08-18T00:21:34.221Z,0
2016-08-18T00:22:34.198Z,0
2016-08-18T00:23:34.184Z,0
2016-08-18T00:24:34.189Z,0
2016-08-18T00:25:34.173Z,0
2016-08-18T00:26:34.162Z,0
2016-08-18T00:27:34.172Z,0
2016-08-18T00:28:34.147Z,0
2016-08-18T00:29:34.143Z,0
2016-08-18T00:30:34.140Z,0
2016-08-18T00:31:34.082Z,0
2016-08-18T00:32:34.093Z,0
2016-08-18T00:33:34.105Z,0
2016-08-18T00:34:35.951Z,0
2016-08-18T00:35:34.066Z,0
2016-08-18T00:36:34.047Z,0
2016-08-18T00:37:34.048Z,0
2016-08-18T00:38:34.027Z,0
2016-08-18T00:39:34.012Z,0
2016-08-18T00:40:34.005Z,0
2016-08-18T00:41:33.993Z,0
2016-08-18T00:42:33.990Z,0
2016-08-18T00:43:33.997Z,0
2016-08-18T00:44:33.975Z,0
2016-08-18T00:45:33.954Z,0
2016-08-18T00:46:33.953Z,0
2016-08-18T00:47:33.976Z,0
2016-08-18T00:48:33.968Z,0
2016-08-18T00:49:33.928Z,0
2016-08-18T00:50:33.919Z,0
2016-08-18T00:51:33.902Z,0
2016-08-18T00:52:33.902Z,0
2016-08-18T00:53:33.916Z,0
2016-08-18T00:54:33.881Z,0
2016-08-18T00:55:33.849Z,0
2016-08-18T00:56:33.844Z,0
2016-08-18T00:57:33.848Z,0
2016-08-18T00:58:33.827Z,0
2016-08-18T00:59:33.811Z,0
2016-08-18T01:00:33.827Z,0
2016-08-18T01:01:33.803Z,0
2016-08-18T01:02:34.501Z,0
2016-08-18T01:03:33.761Z,0
2016-08-18T01:04:33.749Z,0
2016-08-18T01:05:33.765Z,0
2016-08-18T01:06:33.742Z,0
2016-08-18T01:07:33.754Z,0
2016-08-18T01:08:33.708Z,0
2016-08-18T01:09:33.716Z,0
2016-08-18T01:10:33.692Z,0
2016-08-18T01:11:33.697Z,0
2016-08-18T01:12:33.687Z,0
2016-08-18T01:13:33.678Z,0
2016-08-18T01:14:33.673Z,0
2016-08-18T01:15:33.653Z,0
2016-08-18T01:16:33.662Z,0
2016-08-18T01:17:33.639Z,0
2016-08-18T01:18:33.616Z,0
2016-08-18T01:19:33.594Z,0
2016-08-18T01:20:33.602Z,0
2016-08-18T01:21:33.583Z,0
2016-08-18T01:22:33.582Z,0
2016-08-18T01:23:33.559Z,0
2016-08-18T01:24:33.559Z,0
2016-08-18T01:25:33.544Z,0
2016-08-18T01:26:33.538Z,0
2016-08-18T01:27:33.495Z,0
2016-08-18T01:28:33.526Z,0
2016-08-18T01:29:33.483Z,0
2016-08-18T01:30:33.505Z,0
2016-08-18T01:31:33.464Z,0
2016-08-18T01:32:33.453Z,0
2016-08-18T01:33:33.482Z,0
2016-08-18T01:34:35.057Z,0
2016-08-18T01:35:33.439Z,0
2016-08-18T01:36:33.407Z,0
2016-08-18T01:37:33.405Z,0
2016-08-18T01:38:33.404Z,0
2016-08-18T01:39:33.425Z,0
2016-08-18T01:40:33.394Z,0
2016-08-18T01:41:33.363Z,0
2016-08-18T01:42:33.373Z,0
2016-08-18T01:43:33.332Z,0
2016-08-18T01:44:33.338Z,0
2016-08-18T01:45:33.303Z,0
2016-08-18T01:46:33.311Z,0
2016-08-18T01:47:33.326Z,0
2016-08-18T01:48:33.284Z,0
2016-08-18T01:49:33.283Z,0
2016-08-18T01:50:33.285Z,0
2016-08-18T01:51:33.275Z,0
2016-08-18T01:52:33.244Z,0
2016-08-18T01:53:33.254Z,0
2016-08-18T01:54:33.232Z,0
2016-08-18T01:55:33.235Z,0
2016-08-18T01:56:33.211Z,0
2016-08-18T01:57:33.201Z,0
2016-08-18T01:58:33.179Z,0
2016-08-18T01:59:33.186Z,0
2016-08-18T02:00:33.170Z,0
2016-08-18T02:01:33.127Z,0
2016-08-18T02:02:33.146Z,0
2016-08-18T02:03:33.115Z,0
2016-08-18T02:04:33.130Z,0
2016-08-18T02:05:33.088Z,0
2016-08-18T02:06:33.068Z,0
2016-08-18T02:07:33.100Z,0
2016-08-18T02:08:33.081Z,0
2016-08-18T02:09:33.073Z,0
2016-08-18T02:10:33.044Z,0
2016-08-18T02:11:33.031Z,0
2016-08-18T02:12:33.021Z,0
2016-08-18T02:13:33.034Z,0
2016-08-18T02:14:33.012Z,0
2016-08-18T02:15:33.018Z,0
2016-08-18T02:16:32.988Z,0
2016-08-18T02:17:32.986Z,0
2016-08-18T02:18:32.959Z,0
2016-08-18T02:19:32.978Z,0
2016-08-18T02:20:32.937Z,0
2016-08-18T02:21:32.943Z,0
2016-08-18T02:22:32.932Z,0
2016-08-18T02:23:32.953Z,0
2016-08-18T02:24:32.907Z,0
2016-08-18T02:25:32.874Z,0
2016-08-18T02:26:32.881Z,0
2016-08-18T02:27:32.862Z,0
2016-08-18T02:28:32.879Z,0
2016-08-18T02:29:32.868Z,0
2016-08-18T02:30:32.860Z,0
2016-08-18T02:31:32.799Z,0
2016-08-18T02:32:32.809Z,0
2016-08-18T02:33:32.837Z,0
2016-08-18T02:34:36.064Z,0
2016-08-18T02:35:32.787Z,0
2016-08-18T02:36:32.774Z,0
2016-08-18T02:37:32.766Z,0
2016-08-18T02:38:32.737Z,0
2016-08-18T02:39:32.745Z,0
2016-08-18T02:40:32.751Z,0
2016-08-18T02:41:32.719Z,0
2016-08-18T02:42:32.709Z,0
2016-08-18T02:43:32.682Z,0
2016-08-18T02:44:32.708Z,0
2016-08-18T02:45:32.680Z,0
2016-08-18T02:46:32.686Z,0
2016-08-18T02:47:32.652Z,0
2016-08-18T02:48:32.648Z,0
2016-08-18T02:49:32.662Z,0
2016-08-18T02:50:32.627Z,0
2016-08-18T02:51:32.624Z,0
2016-08-18T02:52:32.610Z,0
2016-08-18T02:53:32.595Z,0
2016-08-18T02:54:32.583Z,0
2016-08-18T02:55:32.603Z,0
2016-08-18T02:56:32.548Z,0
2016-08-18T02:57:32.546Z,0
2016-08-18T02:58:32.554Z,0
2016-08-18T02:59:32.551Z,0
2016-08-18T03:00:32.534Z,0
2016-08-18T03:01:33.215Z,0
2016-08-18T03:02:32.485Z,0
2016-08-18T03:03:33.208Z,0
2016-08-18T03:04:32.480Z,0
2016-08-18T03:05:32.483Z,0
2016-08-18T03:06:32.432Z,0
2016-08-18T03:07:32.425Z,0
2016-08-18T03:08:32.424Z,0
2016-08-18T03:09:32.419Z,0
2016-08-18T03:10:32.392Z,0
2016-08-18T03:11:32.415Z,0
2016-08-18T03:12:32.411Z,0
2016-08-18T03:13:32.369Z,0
2016-08-18T03:14:32.343Z,0
2016-08-18T03:15:32.351Z,0
2016-08-18T03:16:32.340Z,0
2016-08-18T03:17:32.297Z,0
2016-08-18T03:18:32.339Z,0
2016-08-18T03:19:32.304Z,0
2016-08-18T03:20:32.299Z,0
2016-08-18T03:21:32.283Z,0
2016-08-18T03:22:32.270Z,0
2016-08-18T03:23:32.275Z,0
2016-08-18T03:24:32.246Z,0
2016-08-18T03:25:32.233Z,0
2016-08-18T03:26:32.223Z,0
2016-08-18T03:27:32.210Z,0
2016-08-18T03:28:32.220Z,0
2016-08-18T03:29:32.190Z,0
2016-08-18T03:30:32.164Z,0
2016-08-18T03:31:32.155Z,0
2016-08-18T03:32:32.194Z,0
2016-08-18T03:33:32.168Z,0
2016-08-18T03:34:32.564Z,0
2016-08-18T03:35:32.134Z,0
2016-08-18T03:36:32.112Z,0
2016-08-18T03:37:32.116Z,0
2016-08-18T03:38:32.076Z,0
2016-08-18T03:39:32.090Z,0
2016-08-18T03:40:32.057Z,0
2016-08-18T03:41:32.047Z,0
2016-08-18T03:42:32.017Z,0
2016-08-18T03:43:32.036Z,0
2016-08-18T03:44:32.038Z,0
2016-08-18T03:45:32.011Z,0
2016-08-18T03:46:32.026Z,0
2016-08-18T03:47:31.977Z,0
2016-08-18T03:48:32.006Z,0
2016-08-18T03:49:31.990Z,0
2016-08-18T03:50:31.975Z,0
2016-08-18T03:51:31.934Z,0
2016-08-18T03:52:31.935Z,0
2016-08-18T03:53:31.903Z,0
2016-08-18T03:54:31.893Z,0
2016-08-18T03:55:31.926Z,0
2016-08-18T03:56:31.913Z,0
2016-08-18T03:57:31.863Z,0
2016-08-18T03:58:31.885Z,0
2016-08-18T03:59:31.856Z,0
2016-08-18T04:00:31.859Z,0
2016-08-18T04:01:31.832Z,0
2016-08-18T04:02:31.815Z,0
2016-08-18T04:03:31.829Z,0
2016-08-18T04:04:31.796Z,0
2016-08-18T04:05:31.795Z,5
2016-08-18T04:06:31.790Z,5
2016-08-18T04:07:31.790Z,5
2016-08-18T04:08:31.763Z,5
2016-08-18T04:09:31.750Z,5
2016-08-18T04:10:32.406Z,10
2016-08-18T04:11:31.706Z,10
2016-08-18T04:12:31.726Z,10
2016-08-18T04:13:31.714Z,15
2016-08-18T04:14:31.713Z,15
2016-08-18T04:15:31.671Z,20
2016-08-18T04:16:31.663Z,20
2016-08-18T04:17:31.682Z,20
2016-08-18T04:18:31.647Z,25
2016-08-18T04:19:31.628Z,25
2016-08-18T04:20:31.626Z,30
2016-08-18T04:21:31.610Z,30
2016-08-18T04:22:31.613Z,30
2016-08-18T04:23:31.576Z,35
2016-08-18T04:24:31.590Z,35
2016-08-18T04:25:31.586Z,40
2016-08-18T04:26:32.271Z,45
2016-08-18T04:27:31.570Z,45
2016-08-18T04:28:31.527Z,50
2016-08-18T04:29:31.525Z,55
2016-08-18T04:30:31.515Z,65
2016-08-18T04:31:31.500Z,70
2016-08-18T04:32:31.497Z,75
2016-08-18T04:33:32.185Z,75
2016-08-18T04:34:31.717Z,70
2016-08-18T04:35:31.470Z,70
2016-08-18T04:36:31.444Z,70
2016-08-18T04:37:31.452Z,75
2016-08-18T04:38:31.412Z,80
2016-08-18T04:39:31.407Z,85
2016-08-18T04:40:31.391Z,90
2016-08-18T04:41:31.397Z,95
2016-08-18T04:42:32.063Z,100
2016-08-18T04:43:31.362Z,110
2016-08-18T04:44:31.370Z,110
2016-08-18T04:45:31.319Z,115
2016-08-18T04:46:31.318Z,125
2016-08-18T04:47:31.316Z,135
2016-08-18T04:48:31.328Z,150
2016-08-18T04:49:31.303Z,155
2016-08-18T04:50:31.284Z,150
2016-08-18T04:51:31.284Z,145
2016-08-18T04:52:31.269Z,145
2016-08-18T04:53:31.268Z,155
2016-08-18T04:54:31.246Z,160
2016-08-18T04:55:31.200Z,165
2016-08-18T04:56:31.223Z,165
2016-08-18T04:57:31.205Z,160
2016-08-18T04:58:31.219Z,160
2016-08-18T04:59:31.174Z,160
2016-08-18T05:00:31.153Z,165
2016-08-18T05:01:31.166Z,165
2016-08-18T05:02:31.110Z,170
2016-08-18T05:03:31.108Z,170
2016-08-18T05:04:31.134Z,175
2016-08-18T05:05:31.109Z,185
2016-08-18T05:06:31.089Z,195
2016-08-18T05:07:31.082Z,205
2016-08-18T05:08:31.088Z,200
2016-08-18T05:09:31.040Z,205
2016-08-18T05:10:31.069Z,210
2016-08-18T05:11:31.025Z,215
2016-08-18T05:12:31.021Z,215
2016-08-18T05:13:31.027Z,215
2016-08-18T05:14:30.965Z,220
2016-08-18T05:15:30.985Z,220
2016-08-18T05:16:30.985Z,220
2016-08-18T05:17:31.660Z,225
2016-08-18T05:18:30.926Z,225
2016-08-18T05:19:30.921Z,230
2016-08-18T05:20:30.943Z,230
2016-08-18T05:21:30.925Z,235
2016-08-18T05:22:30.930Z,240
2016-08-18T05:23:30.884Z,245
2016-08-18T05:24:30.885Z,250
2016-08-18T05:25:30.832Z,255
2016-08-18T05:26:30.849Z,260
2016-08-18T05:27:30.829Z,275
2016-08-18T05:28:30.851Z,300
2016-08-18T05:29:30.797Z,385
2016-08-18T05:30:30.816Z,690
2016-08-18T05:31:30.793Z,805
2016-08-18T05:32:30.783Z,780
2016-08-18T05:33:30.751Z,825
2016-08-18T05:34:30.755Z,875
2016-08-18T05:35:30.742Z,755
2016-08-18T05:36:31.434Z,610
2016-08-18T05:37:30.725Z,710
2016-08-18T05:38:30.701Z,730
2016-08-18T05:39:30.676Z,720
2016-08-18T05:40:30.718Z,725
2016-08-18T05:41:30.648Z,755
2016-08-18T05:42:30.676Z,800
2016-08-18T05:43:30.662Z,725
2016-08-18T05:44:30.630Z,785
2016-08-18T05:45:30.612Z,635
2016-08-18T05:46:30.638Z,460
2016-08-18T05:47:30.603Z,645
2016-08-18T05:48:30.576Z,650
2016-08-18T05:49:30.563Z,1100
2016-08-18T05:50:30.567Z,640
2016-08-18T05:51:30.560Z,690
2016-08-18T05:52:30.583Z,710
2016-08-18T05:53:31.951Z,545
2016-08-18T05:54:30.515Z,525
2016-08-18T05:55:30.783Z,640
2016-08-18T05:56:30.502Z,1145
2016-08-18T05:57:30.497Z,1135
2016-08-18T05:58:30.485Z,670
2016-08-18T05:59:30.466Z,585
2016-08-18T06:00:30.423Z,530
2016-08-18T06:01:30.441Z,530
2016-08-18T06:02:30.435Z,510
2016-08-18T06:03:30.423Z,495
2016-08-18T06:04:30.412Z,390
2016-08-18T06:05:30.403Z,630
2016-08-18T06:06:30.359Z,735
2016-08-18T06:07:30.352Z,550
2016-08-18T06:08:30.367Z,590
2016-08-18T06:09:31.055Z,625
2016-08-18T06:10:30.359Z,675
2016-08-18T06:11:30.327Z,545
2016-08-18T06:12:30.301Z,415
2016-08-18T06:13:30.301Z,330
2016-08-18T06:14:30.291Z,395
2016-08-18T06:15:30.268Z,430
2016-08-18T06:16:30.270Z,325
2016-08-18T06:17:30.258Z,375
2016-08-18T06:18:30.260Z,435
2016-08-18T06:19:30.235Z,655
2016-08-18T06:20:30.224Z,540
2016-08-18T06:21:30.208Z,525
2016-08-18T06:22:30.200Z,450
2016-08-18T06:23:30.197Z,610
2016-08-18T06:24:30.166Z,1010
2016-08-18T06:25:30.452Z,790
2016-08-18T06:26:30.165Z,975
2016-08-18T06:27:30.153Z,535
2016-08-18T06:28:30.132Z,565
2016-08-18T06:29:30.118Z,610
2016-08-18T06:30:30.113Z,480
2016-08-18T06:31:30.116Z,465
2016-08-18T06:32:30.077Z,445
2016-08-18T06:33:30.055Z,335
2016-08-18T06:34:30.086Z,290
2016-08-18T06:35:30.056Z,310
2016-08-18T06:36:30.032Z,445
2016-08-18T06:37:30.030Z,490
2016-08-18T06:38:30.020Z,490
2016-08-18T06:39:30.288Z,425
2016-08-18T06:40:30.007Z,375
2016-08-18T06:41:29.980Z,295
2016-08-18T06:42:29.944Z,385
2016-08-18T06:43:30.656Z,495
2016-08-18T06:44:29.983Z,510
2016-08-18T06:45:30.056Z,410
2016-08-18T06:46:29.932Z,270
2016-08-18T06:47:29.899Z,285
2016-08-18T06:48:29.942Z,435
2016-08-18T06:49:29.898Z,490
2016-08-18T06:50:29.908Z,450
2016-08-18T06:51:29.911Z,575
2016-08-18T06:52:29.855Z,355
2016-08-18T06:53:29.877Z,240
2016-08-18T06:54:29.861Z,280
2016-08-18T06:55:29.831Z,345
2016-08-18T06:56:29.792Z,365
2016-08-18T06:57:29.819Z,280
2016-08-18T06:58:29.785Z,250
2016-08-18T06:59:29.764Z,225
2016-08-18T07:00:29.752Z,315
2016-08-18T07:01:29.747Z,335
2016-08-18T07:02:29.744Z,255
2016-08-18T07:03:29.728Z,400
2016-08-18T07:04:29.707Z,505
2016-08-18T07:05:29.905Z,405
2016-08-18T07:06:29.702Z,375
2016-08-18T07:07:29.707Z,770
2016-08-18T07:08:29.644Z,500
2016-08-18T07:09:29.664Z,395
2016-08-18T07:10:29.672Z,525
2016-08-18T07:11:29.646Z,565
2016-08-18T07:12:29.624Z,465
2016-08-18T07:13:29.626Z,550
2016-08-18T07:14:29.592Z,505
2016-08-18T07:15:29.690Z,490
2016-08-18T07:16:29.611Z,550
2016-08-18T07:17:29.576Z,595
2016-08-18T07:18:29.596Z,510
2016-08-18T07:19:29.529Z,465
2016-08-18T07:20:29.648Z,700
2016-08-18T07:21:29.539Z,590
2016-08-18T07:22:30.223Z,805
2016-08-18T07:23:29.520Z,665
2016-08-18T07:24:29.503Z,635
2016-08-18T07:25:29.472Z,770
2016-08-18T07:26:29.457Z,1085
2016-08-18T07:27:29.450Z,820
2016-08-18T07:28:29.457Z,545
2016-08-18T07:29:29.427Z,655
2016-08-18T07:30:29.467Z,585
2016-08-18T07:31:29.424Z,380
2016-08-18T07:32:29.427Z,410
2016-08-18T07:33:29.396Z,1050
2016-08-18T07:34:29.512Z,1770
2016-08-18T07:35:29.369Z,695
2016-08-18T07:36:34.205Z,3200
2016-08-18T07:37:29.390Z,1705
2016-08-18T07:38:29.364Z,1615
2016-08-18T07:39:29.358Z,1310
2016-08-18T07:40:29.308Z,1890
2016-08-18T07:41:29.285Z,860
2016-08-18T07:42:29.319Z,1380
2016-08-18T07:43:29.315Z,1510
2016-08-18T07:44:29.968Z,1530
2016-08-18T07:45:29.580Z,2425
2016-08-18T07:46:29.236Z,920
2016-08-18T07:47:29.243Z,850
2016-08-18T07:48:29.259Z,825
2016-08-18T07:49:29.238Z,740
2016-08-18T07:50:29.526Z,775
2016-08-18T07:51:30.050Z,820
2016-08-18T07:52:29.193Z,910
2016-08-18T07:53:29.166Z,965
2016-08-18T07:54:29.207Z,1135
2016-08-18T07:55:29.163Z,1110
2016-08-18T07:56:29.165Z,830
2016-08-18T07:57:29.826Z,720
2016-08-18T07:58:29.110Z,725
2016-08-18T07:59:29.142Z,660
2016-08-18T08:00:29.142Z,700
2016-08-18T08:01:29.129Z,745
2016-08-18T08:02:29.094Z,1110
2016-08-18T08:03:29.793Z,925
2016-08-18T08:04:29.061Z,880
2016-08-18T08:05:30.472Z,955
2016-08-18T08:06:29.046Z,750
2016-08-18T08:07:29.007Z,930
2016-08-18T08:08:29.023Z,1040
2016-08-18T08:09:29.742Z,835
2016-08-18T08:10:29.565Z,845
2016-08-18T08:11:28.993Z,895
2016-08-18T08:12:29.009Z,890
2016-08-18T08:13:28.958Z,910
2016-08-18T08:14:28.948Z,1450
2016-08-18T08:15:28.963Z,1105
2016-08-18T08:16:28.934Z,1075
2016-08-18T08:17:28.933Z,925
2016-08-18T08:18:28.919Z,1355
2016-08-18T08:19:28.874Z,1545
2016-08-18T08:20:28.899Z,1835
2016-08-18T08:21:28.894Z,2990
2016-08-18T08:22:29.835Z,1510
2016-08-18T08:23:28.962Z,995
2016-08-18T08:24:28.849Z,710
2016-08-18T08:25:28.807Z,705
2016-08-18T08:26:28.812Z,755
2016-08-18T08:27:28.881Z,790
2016-08-18T08:28:29.385Z,985
2016-08-18T08:29:28.837Z,990
2016-08-18T08:30:29.820Z,1045
2016-08-18T08:31:28.782Z,885
2016-08-18T08:32:28.769Z,790
2016-08-18T08:33:29.609Z,815
2016-08-18T08:34:28.951Z,905
2016-08-18T08:35:32.797Z,1130
2016-08-18T08:36:28.901Z,1030
2016-08-18T08:37:29.066Z,1090
2016-08-18T08:38:28.826Z,855
2016-08-18T08:39:29.027Z,865
2016-08-18T08:40:35.742Z,980
2016-08-18T08:41:28.659Z,1010
2016-08-18T08:42:29.391Z,835
2016-08-18T08:43:28.648Z,1095
2016-08-18T08:44:28.624Z,1205
2016-08-18T08:45:28.632Z,1115
2016-08-18T08:46:28.794Z,1160
2016-08-18T08:47:28.602Z,960
2016-08-18T08:48:28.618Z,855
2016-08-18T08:49:29.113Z,860
2016-08-18T08:50:29.686Z,870
2016-08-18T08:51:28.575Z,1140
2016-08-18T08:52:28.571Z,1890
2016-08-18T08:53:28.557Z,1165
2016-08-18T08:54:28.529Z,990
2016-08-18T08:56:28.679Z,1155
2016-08-18T08:57:28.529Z,1205
2016-08-18T08:58:31.375Z,955
2016-08-18T08:59:28.502Z,940
2016-08-18T09:00:28.460Z,1190
2016-08-18T09:01:28.482Z,1090
2016-08-18T09:02:28.467Z,950
2016-08-18T09:03:29.224Z,840
2016-08-18T09:04:28.422Z,680
2016-08-18T09:05:31.354Z,725
2016-08-18T09:06:28.446Z,795
2016-08-18T09:07:28.427Z,935
2016-08-18T09:08:28.401Z,1195
2016-08-18T09:09:28.389Z,1285
2016-08-18T09:10:28.553Z,1215
2016-08-18T09:11:28.368Z,1170
2016-08-18T09:12:28.374Z,1235
2016-08-18T09:13:28.379Z,1075
2016-08-18T09:14:28.388Z,1145
2016-08-18T09:15:28.926Z,1520
2016-08-18T09:16:28.337Z,1565
2016-08-18T09:17:28.332Z,1585
2016-08-18T09:18:28.317Z,1260
2016-08-18T09:19:28.317Z,1690
2016-08-18T09:20:29.377Z,2090
2016-08-18T09:21:28.327Z,1895
2016-08-18T09:22:28.301Z,1685
2016-08-18T09:23:28.297Z,1440
2016-08-18T09:24:28.271Z,1625
2016-08-18T09:25:28.392Z,3605
2016-08-18T09:26:28.251Z,2315
2016-08-18T09:27:28.228Z,2430
2016-08-18T09:28:28.281Z,2465
2016-08-18T09:29:28.229Z,1870
2016-08-18T09:30:28.234Z,1860
2016-08-18T09:31:28.212Z,1910
2016-08-18T09:32:28.278Z,1590
2016-08-18T09:33:28.216Z,1605
2016-08-18T09:34:28.189Z,1295
2016-08-18T09:35:29.141Z,1340
2016-08-18T09:36:28.186Z,1775
2016-08-18T09:37:28.168Z,2495
2016-08-18T09:38:28.152Z,2175
2016-08-18T09:39:28.141Z,2520
2016-08-18T09:40:28.686Z,1480
2016-08-18T09:41:28.177Z,1590
2016-08-18T09:42:28.138Z,1655
2016-08-18T09:43:28.147Z,2845
2016-08-18T09:44:28.181Z,4025
2016-08-18T09:45:29.018Z,4190
2016-08-18T09:46:28.109Z,2700
2016-08-18T09:47:28.095Z,1695
2016-08-18T09:48:28.080Z,1535
2016-08-18T09:49:28.790Z,1530
2016-08-18T09:50:28.382Z,2120
2016-08-18T09:51:28.074Z,2215
2016-08-18T09:52:28.028Z,1510
2016-08-18T09:53:28.041Z,1295
2016-08-18T09:54:28.481Z,2480
2016-08-18T09:55:29.897Z,1990
2016-08-18T09:56:28.043Z,3690
2016-08-18T09:57:28.012Z,2500
2016-08-18T09:58:27.993Z,3135
2016-08-18T09:59:27.987Z,1580
2016-08-18T10:00:29.025Z,1025
2016-08-18T10:01:27.972Z,900
2016-08-18T10:02:27.959Z,740
2016-08-18T10:03:27.972Z,630
2016-08-18T10:04:27.992Z,600
2016-08-18T10:05:28.016Z,635
2016-08-18T10:06:27.924Z,860
2016-08-18T10:07:27.925Z,1230
2016-08-18T10:08:27.909Z,1315
2016-08-18T10:09:27.966Z,1245
2016-08-18T10:10:41.506Z,1200
2016-08-18T10:11:27.900Z,1050
2016-08-18T10:12:27.862Z,755
2016-08-18T10:13:27.880Z,750
2016-08-18T10:14:27.870Z,1140
2016-08-18T10:15:28.620Z,2795
2016-08-18T10:16:27.852Z,3525
2016-08-18T10:17:27.828Z,1625
2016-08-18T10:18:27.857Z,1285
2016-08-18T10:19:27.842Z,2845
2016-08-18T10:20:27.812Z,3645
2016-08-18T10:21:27.801Z,3495
2016-08-18T10:22:27.789Z,4415
2016-08-18T10:23:27.812Z,3700
2016-08-18T10:24:27.779Z,4075
2016-08-18T10:25:27.760Z,2455
2016-08-18T10:26:27.755Z,2450
2016-08-18T10:27:27.749Z,1790
2016-08-18T10:28:27.758Z,1570
2016-08-18T10:29:27.726Z,1645
2016-08-18T10:30:27.806Z,1800
2016-08-18T10:31:27.738Z,1990
2016-08-18T10:32:27.708Z,3145
2016-08-18T10:33:28.388Z,2115
2016-08-18T10:34:27.702Z,1605
2016-08-18T10:35:27.659Z,1375
2016-08-18T10:36:29.259Z,1145
2016-08-18T10:37:27.663Z,825
2016-08-18T10:38:27.673Z,850
2016-08-18T10:39:27.630Z,635
2016-08-18T10:40:27.631Z,600
2016-08-18T10:41:27.627Z,490
2016-08-18T10:42:27.620Z,450
2016-08-18T10:43:27.604Z,420
2016-08-18T10:44:27.606Z,405
2016-08-18T10:45:28.307Z,445
2016-08-18T10:46:27.597Z,690
2016-08-18T10:47:27.565Z,940
2016-08-18T10:48:27.552Z,1070
2016-08-18T10:49:27.578Z,990
2016-08-18T10:50:28.254Z,1195
2016-08-18T10:51:27.549Z,1150
2016-08-18T10:52:27.533Z,1250
2016-08-18T10:53:27.566Z,1320
2016-08-18T10:54:27.529Z,1470
2016-08-18T10:55:27.512Z,1750
2016-08-18T10:56:27.518Z,2070
2016-08-18T10:57:27.479Z,2370
2016-08-18T10:58:27.470Z,4725
2016-08-18T10:59:27.489Z,5025
2016-08-18T11:00:27.925Z,4630
2016-08-18T11:01:27.485Z,5225
2016-08-18T11:02:27.486Z,5365
2016-08-18T11:03:27.420Z,5080
2016-08-18T11:04:27.431Z,4700
2016-08-18T11:05:27.452Z,3665
2016-08-18T11:06:27.444Z,3825
2016-08-18T11:07:27.407Z,2375
2016-08-18T11:08:27.412Z,2245
2016-08-18T11:09:27.396Z,2225
2016-08-18T11:10:27.404Z,2305
2016-08-18T11:11:27.373Z,2155
2016-08-18T11:12:27.388Z,1950
2016-08-18T11:13:27.387Z,1500
2016-08-18T11:14:27.348Z,1270
2016-08-18T11:15:27.348Z,985
2016-08-18T11:16:27.355Z,775
2016-08-18T11:17:27.333Z,660
2016-08-18T11:18:27.312Z,590
2016-08-18T11:19:27.353Z,555
2016-08-18T11:20:28.028Z,485
2016-08-18T11:21:27.301Z,435
2016-08-18T11:22:27.307Z,360
2016-08-18T11:23:27.271Z,300
2016-08-18T11:24:27.251Z,260
2016-08-18T11:25:27.271Z,235
2016-08-18T11:26:27.252Z,200
2016-08-18T11:27:27.930Z,185
2016-08-18T11:28:27.251Z,200
2016-08-18T11:29:27.221Z,215
2016-08-18T11:30:27.332Z,210
2016-08-18T11:31:27.265Z,225
2016-08-18T11:32:27.207Z,210
2016-08-18T11:33:27.179Z,160
2016-08-18T11:34:27.189Z,155
2016-08-18T11:35:27.222Z,195
2016-08-18T11:36:27.170Z,220
2016-08-18T11:37:27.132Z,195
2016-08-18T11:38:27.175Z,220
2016-08-18T11:39:27.847Z,250
2016-08-18T11:40:27.612Z,325
2016-08-18T11:41:27.134Z,325
2016-08-18T11:42:27.127Z,270
2016-08-18T11:43:27.088Z,215
2016-08-18T11:44:27.819Z,245
2016-08-18T11:45:27.827Z,275
2016-08-18T11:46:27.830Z,270
2016-08-18T11:47:27.065Z,375
2016-08-18T11:48:27.048Z,500
2016-08-18T11:49:27.888Z,400
2016-08-18T11:50:27.143Z,300
2016-08-18T11:51:27.043Z,260
2016-08-18T11:52:27.014Z,285
2016-08-18T11:53:27.016Z,370
2016-08-18T11:54:27.023Z,490
2016-08-18T11:55:27.128Z,625
2016-08-18T11:56:26.966Z,540
2016-08-18T12:12:02.787Z,1725
2016-08-18T12:13:02.744Z,1745
2016-08-18T12:14:02.763Z,2805
2016-08-18T12:15:03.342Z,2325
2016-08-18T12:16:03.342Z,2045
2016-08-18T12:17:03.353Z,1730
2016-08-18T12:18:03.338Z,1565
2016-08-18T12:19:03.292Z,1415
2016-08-18T12:20:03.277Z,1295
2016-08-18T12:21:03.311Z,1410
2016-08-18T12:22:03.289Z,1515
2016-08-18T12:23:03.271Z,1510
2016-08-18T12:24:03.246Z,1465
2016-08-18T12:25:03.233Z,1530
2016-08-18T12:26:03.262Z,1705
2016-08-18T12:27:03.233Z,1855
2016-08-18T12:28:03.225Z,1960
2016-08-18T12:29:03.237Z,2085
2016-08-18T12:30:03.237Z,2190
2016-08-18T12:31:03.211Z,2630
2016-08-18T12:32:03.186Z,2870
2016-08-18T12:33:03.168Z,3005
2016-08-18T12:34:03.199Z,3130
2016-08-18T12:35:03.179Z,3335
2016-08-18T12:36:03.153Z,3070
2016-08-18T12:37:03.170Z,2955
2016-08-18T12:38:03.135Z,2940
2016-08-18T12:39:03.141Z,2860
2016-08-18T12:40:03.112Z,3065
2016-08-18T12:41:03.136Z,3475
2016-08-18T12:42:03.108Z,2780
2016-08-18T12:43:03.093Z,1985
2016-08-18T12:44:03.079Z,1675
2016-08-18T12:45:03.092Z,1575
2016-08-18T12:46:03.097Z,1515
2016-08-18T12:47:03.072Z,1495
2016-08-18T12:48:03.774Z,1535
2016-08-18T12:49:03.022Z,1735
2016-08-18T12:50:03.053Z,2070
2016-08-18T12:51:03.032Z,2245
2016-08-18T12:52:03.708Z,2395
2016-08-18T12:53:03.006Z,3030
2016-08-18T12:54:02.977Z,4055
2016-08-18T12:55:03.686Z,4925
2016-08-18T12:56:02.963Z,6245
2016-08-18T12:57:02.969Z,4545
2016-08-18T12:58:02.960Z,4280
2016-08-18T12:59:03.665Z,3740
2016-08-18T13:00:02.916Z,3835
2016-08-18T13:01:02.943Z,4045
2016-08-18T13:02:02.931Z,4060
2016-08-18T13:03:02.922Z,4105
2016-08-18T13:04:02.898Z,3700
2016-08-18T13:05:02.925Z,2155
2016-08-18T13:06:02.931Z,2410
2016-08-18T13:07:02.873Z,2380
2016-08-18T13:08:02.863Z,1785
2016-08-18T13:09:02.872Z,1845
2016-08-18T13:10:02.849Z,4975
2016-08-18T13:11:02.861Z,4440
2016-08-18T13:12:02.876Z,4160
2016-08-18T13:13:03.572Z,4205
2016-08-18T13:14:02.820Z,4170
2016-08-18T13:15:02.830Z,3680
2016-08-18T13:16:02.822Z,2980
2016-08-18T13:17:02.808Z,2460
2016-08-18T13:18:02.788Z,2020
2016-08-18T13:19:02.795Z,2050
2016-08-18T13:20:02.809Z,4285
2016-08-18T13:21:02.795Z,4140
2016-08-18T13:22:02.784Z,1620
2016-08-18T13:23:02.767Z,1655
2016-08-18T13:24:02.766Z,1625
2016-08-18T13:25:02.782Z,1670
2016-08-18T13:26:02.764Z,2120
2016-08-18T13:27:02.740Z,2395
2016-08-18T13:28:02.730Z,1985
2016-08-18T13:29:02.722Z,1610
2016-08-18T13:30:02.723Z,2570
2016-08-18T13:31:02.727Z,2120
2016-08-18T13:32:02.674Z,1370
2016-08-18T13:33:02.697Z,1300
2016-08-18T13:34:02.719Z,1245
2016-08-18T13:35:02.680Z,1265
2016-08-18T13:36:02.665Z,2120
2016-08-18T13:37:02.663Z,1465
2016-08-18T13:38:02.656Z,2745
2016-08-18T13:39:02.629Z,3400
2016-08-18T13:40:02.614Z,2490
2016-08-18T13:41:02.616Z,2250
2016-08-18T13:42:02.625Z,2530
2016-08-18T13:43:02.596Z,3015
2016-08-18T13:44:02.618Z,3020
2016-08-18T13:45:02.588Z,3075
2016-08-18T13:46:02.599Z,2565
2016-08-18T13:47:02.618Z,2950
2016-08-18T13:48:02.583Z,3875
2016-08-18T13:49:02.551Z,4070
2016-08-18T13:50:02.561Z,3310
2016-08-18T13:51:02.557Z,3665
2016-08-18T13:52:02.570Z,3555
2016-08-18T13:53:02.565Z,3255
2016-08-18T13:54:02.538Z,2600
2016-08-18T13:55:02.546Z,2090
2016-08-18T13:56:02.527Z,2330
2016-08-18T13:57:02.542Z,2350
2016-08-18T13:58:02.519Z,1995
2016-08-18T13:59:02.501Z,1330
2016-08-18T14:00:02.499Z,1195
2016-08-18T14:01:02.479Z,1290
2016-08-18T14:02:02.490Z,1335
2016-08-18T14:03:02.486Z,1330
2016-08-18T14:04:02.458Z,1300
2016-08-18T14:05:02.490Z,1270
2016-08-18T14:06:02.472Z,1220
2016-08-18T14:07:02.442Z,1195
2016-08-18T14:08:02.432Z,1180
2016-08-18T14:09:02.434Z,1160
2016-08-18T14:10:02.421Z,1155
2016-08-18T14:11:02.377Z,1160